Time;durP1;ratioP1;P1;durP2;ratioP2;P2;SDS_P1;SDS_P2;PMS_P1;PMS_P2;Temp;Humidity;BMP_temperature;BMP_pressure;BME280_temperature;BME280_humidity;BME280_pressure;Samples;Min_cycle;Max_cycle;Signal;HPM_P1;HPM_P2
2023/01/08 00:03:00;;;;;;;1999.90;999.90;;;;;;;9.56;100.00;100286.50;10330317;28;20053;-64
2023/01/08 00:08:03;;;;;;;1999.90;999.90;;;;;;;9.58;100.00;100270.72;10331473;28;20481;-64
2023/01/08 00:13:06;;;;;;;1999.90;999.90;;;;;;;9.45;100.00;100262.81;10330729;28;20043;-64
2023/01/08 00:18:09;;;;;;;1999.90;999.90;;;;;;;9.63;100.00;100264.31;10336312;28;20513;-64
2023/01/08 00:23:12;;;;;;;1999.90;999.90;;;;;;;9.56;100.00;100257.75;10339930;28;20050;-64
2023/01/08 00:28:15;;;;;;;1999.90;999.90;;;;;;;9.66;100.00;100264.09;10338831;28;20057;-64
2023/01/08 00:33:18;;;;;;;1999.90;999.90;;;;;;;9.64;100.00;100263.34;10337290;28;20050;-64
2023/01/08 00:38:23;;;;;;;1999.90;999.90;;;;;;;9.68;100.00;100261.38;10338604;28;20062;-64
2023/01/08 00:43:26;;;;;;;1999.90;999.90;;;;;;;9.66;100.00;100251.00;10337998;28;20046;-64
2023/01/08 00:48:28;;;;;;;1999.90;999.90;;;;;;;9.64;100.00;100229.38;10338424;28;20445;-64
2023/01/08 00:53:31;;;;;;;1999.90;999.90;;;;;;;9.48;100.00;100233.88;10338064;28;20050;-64
2023/01/08 00:58:33;;;;;;;1999.90;999.90;;;;;;;9.56;100.00;100229.00;10337553;28;20046;-64
2023/01/08 01:03:36;;;;;;;1999.90;999.90;;;;;;;9.66;100.00;100222.25;10338421;28;20216;-64
2023/01/08 01:08:39;;;;;;;1999.90;999.90;;;;;;;9.70;100.00;100219.47;10336134;28;20046;-64
2023/01/08 01:13:41;;;;;;;1999.90;999.90;;;;;;;9.44;100.00;100208.88;10336964;28;20069;-64
2023/01/08 01:18:44;;;;;;;1999.90;999.90;;;;;;;9.67;100.00;100216.09;10337233;28;20066;-64
2023/01/08 01:23:47;;;;;;;1999.90;999.90;;;;;;;9.58;100.00;100203.63;10337616;28;20055;-64
2023/01/08 01:28:51;;;;;;;1999.90;999.90;;;;;;;9.59;100.00;100207.06;10335549;28;20103;-64
2023/01/08 01:33:53;;;;;;;1999.90;999.90;;;;;;;9.58;100.00;100202.78;10335073;28;20066;-64
2023/01/08 01:38:56;;;;;;;1999.90;999.90;;;;;;;9.65;100.00;100210.16;10336503;28;20523;-64
2023/01/08 01:44:21;;;;;;;1999.90;999.90;;;;;;;9.63;100.00;100206.78;10336876;28;20046;-64
2023/01/08 01:49:23;;;;;;;1999.90;999.90;;;;;;;9.65;100.00;100201.47;10340082;23;20050;-68
2023/01/08 01:54:25;;;;;;;1999.90;999.90;;;;;;;9.74;100.00;100208.72;10334856;28;20551;-68
2023/01/08 01:59:28;;;;;;;1999.90;999.90;;;;;;;9.67;100.00;100212.66;10336356;28;20058;-68
2023/01/08 02:04:30;;;;;;;1999.90;999.90;;;;;;;9.51;100.00;100207.53;10334760;28;20054;-70
2023/01/08 02:09:42;;;;;;;1999.90;999.90;;;;;;;9.54;100.00;100202.13;10335976;28;20101;-68
2023/01/08 02:15:18;;;;;;;1999.90;999.90;;;;;;;9.62;100.00;100201.66;10357845;28;20504;-68
2023/01/08 02:20:55;;;;;;;1999.90;999.90;;;;;;;9.59;100.00;100199.25;10376129;28;20046;-68
2023/01/08 02:26:26;;;;;;;1999.90;999.90;;;;;;;9.63;100.00;100187.63;10367340;28;20056;-69
2023/01/08 02:31:30;;;;;;;1999.90;999.90;;;;;;;9.64;100.00;100186.72;10372140;28;20053;-68
2023/01/08 02:36:43;;;;;;;1999.90;999.90;;;;;;;9.44;100.00;100187.97;10342273;28;20061;-68
2023/01/08 02:42:05;;;;;;;1999.90;999.90;;;;;;;9.31;100.00;100185.25;10349714;28;20050;-68
2023/01/08 02:47:12;;;;;;;1999.90;999.90;;;;;;;9.15;100.00;100198.44;10334113;28;20050;-68
2023/01/08 02:52:17;;;;;;;1999.90;999.90;;;;;;;8.86;100.00;100187.13;10370036;28;20050;-68
2023/01/08 02:57:20;;;;;;;1999.90;999.90;;;;;;;8.81;100.00;100176.97;10339452;28;20054;-68
2023/01/08 03:02:23;;;;;;;1999.90;999.90;;;;;;;8.73;100.00;100174.81;10333329;28;20049;-68
2023/01/08 03:07:26;;;;;;;1999.90;999.90;;;;;;;8.62;100.00;100184.22;10348538;28;20058;-68
2023/01/08 03:13:07;;;;;;;1999.90;999.90;;;;;;;8.61;100.00;100177.31;10358425;28;20057;-68
2023/01/08 03:18:20;;;;;;;1999.90;999.90;;;;;;;8.62;100.00;100190.25;10317263;28;20050;-68
2023/01/08 03:23:22;;;;;;;1999.90;999.90;;;;;;;8.52;100.00;100189.13;10349056;28;20042;-68
2023/01/08 03:28:29;;;;;;;1999.90;999.90;;;;;;;8.05;100.00;100193.50;10351011;28;20054;-68
2023/01/08 03:33:31;;;;;;;1999.90;999.90;;;;;;;8.12;100.00;100197.47;10368731;28;20486;-68
2023/01/08 03:38:39;;;;;;;1999.90;999.90;;;;;;;8.10;100.00;100194.13;10373518;28;20508;-67
2023/01/08 03:43:41;;;;;;;1999.90;999.90;;;;;;;8.27;100.00;100185.31;10372927;28;20104;-68
2023/01/08 03:48:44;;;;;;;1999.90;999.90;;;;;;;8.38;100.00;100179.47;10369593;28;20084;-67
2023/01/08 03:53:48;;;;;;;1999.90;999.90;;;;;;;8.02;100.00;100174.59;10371634;28;20038;-68
2023/01/08 03:58:50;;;;;;;1999.90;999.90;;;;;;;8.15;100.00;100181.66;10356026;28;20050;-68
2023/01/08 04:03:53;;;;;;;1999.90;999.90;;;;;;;8.21;100.00;100182.22;10339687;28;20050;-68
2023/01/08 04:08:55;;;;;;;1999.90;999.90;;;;;;;8.10;100.00;100178.47;10340592;28;20054;-67
2023/01/08 04:13:57;;;;;;;1999.90;999.90;;;;;;;8.13;100.00;100167.00;10341220;28;20046;-67
2023/01/08 04:19:00;;;;;;;1999.90;999.90;;;;;;;8.04;100.00;100167.53;10380674;28;20046;-67
2023/01/08 04:24:02;;;;;;;1999.90;999.90;;;;;;;7.91;100.00;100162.19;10377589;28;20050;-67
2023/01/08 04:29:04;;;;;;;1999.90;999.90;;;;;;;8.07;100.00;100152.56;10378529;28;20429;-67
2023/01/08 04:34:07;;;;;;;1999.90;999.90;;;;;;;8.21;100.00;100156.16;10369356;28;20482;-67
2023/01/08 04:39:10;;;;;;;1999.90;999.90;;;;;;;8.25;100.00;100135.00;10339482;28;20050;-67
2023/01/08 04:44:13;;;;;;;1999.90;999.90;;;;;;;8.14;100.00;100134.81;10339269;28;20057;-67
2023/01/08 04:49:15;;;;;;;1999.90;999.90;;;;;;;7.87;100.00;100117.22;10347677;28;20054;-67
2023/01/08 04:54:17;;;;;;;1999.90;999.90;;;;;;;8.05;100.00;100114.47;10365796;28;20053;-67
2023/01/08 04:59:19;;;;;;;1999.90;999.90;;;;;;;8.05;100.00;100125.72;10338937;28;20050;-67
2023/01/08 05:04:22;;;;;;;1999.90;999.90;;;;;;;8.21;100.00;100130.06;10338391;28;20050;-68
2023/01/08 05:09:24;;;;;;;1999.90;999.90;;;;;;;8.08;100.00;100119.50;10347832;28;20053;-68
2023/01/08 05:14:26;;;;;;;1999.90;999.90;;;;;;;8.03;100.00;100124.16;10363999;28;20120;-68
2023/01/08 05:19:29;;;;;;;1999.90;999.90;;;;;;;8.05;100.00;100119.69;10375184;28;20060;-68
2023/01/08 05:24:31;;;;;;;1999.90;999.90;;;;;;;8.05;100.00;100125.72;10375770;28;20098;-68
2023/01/08 05:29:33;;;;;;;1999.90;999.90;;;;;;;8.17;100.00;100119.81;10377967;28;20056;-68
2023/01/08 05:34:36;;;;;;;1999.90;999.90;;;;;;;8.24;100.00;100115.09;10364839;28;20046;-69
2023/01/08 05:39:38;;;;;;;1999.90;999.90;;;;;;;7.98;100.00;100114.84;10335553;28;20448;-68
2023/01/08 05:44:41;;;;;;;1999.90;999.90;;;;;;;8.17;100.00;100121.59;10377225;28;20041;-68
2023/01/08 05:49:43;;;;;;;1999.90;999.90;;;;;;;8.02;100.00;100099.00;10374060;28;20497;-67
2023/01/08 05:54:45;;;;;;;1999.90;999.90;;;;;;;8.14;100.00;100090.47;10362909;28;20053;-68
2023/01/08 05:59:48;;;;;;;1999.90;999.90;;;;;;;8.16;100.00;100102.47;10335284;28;20061;-69
2023/01/08 06:04:50;;;;;;;1999.90;999.90;;;;;;;8.22;100.00;100093.47;10335004;28;20101;-68
2023/01/08 06:09:52;;;;;;;1999.90;999.90;;;;;;;8.14;100.00;100086.09;10335022;28;20054;-68
2023/01/08 06:14:55;;;;;;;1999.90;999.90;;;;;;;8.18;100.00;100091.97;10348728;28;20481;-68
2023/01/08 06:19:57;;;;;;;1999.90;999.90;;;;;;;8.00;100.00;100093.88;10339051;28;20053;-68
2023/01/08 06:24:59;;;;;;;1999.90;999.90;;;;;;;8.19;100.00;100107.53;10375320;28;20482;-68
2023/01/08 06:30:02;;;;;;;1999.90;999.90;;;;;;;8.29;100.00;100115.66;10375085;28;20429;-68
2023/01/08 06:35:04;;;;;;;1999.90;999.90;;;;;;;8.17;100.00;100111.16;10359009;28;20118;-68
2023/01/08 06:40:07;;;;;;;1999.90;999.90;;;;;;;7.87;100.00;100126.78;10333888;28;20050;-68
2023/01/08 06:45:10;;;;;;;1999.90;999.90;;;;;;;7.60;100.00;100136.06;10334742;28;20043;-68
2023/01/08 06:50:12;;;;;;;1999.90;999.90;;;;;;;7.80;100.00;100127.13;10334213;28;20054;-68
2023/01/08 06:55:15;;;;;;;1999.90;999.90;;;;;;;7.47;100.00;100134.22;10332958;28;20042;-69
2023/01/08 07:00:17;;;;;;;1999.90;999.90;;;;;;;7.60;100.00;100138.69;10332783;28;20117;-68
2023/01/08 07:05:20;;;;;;;1999.90;999.90;;;;;;;7.30;100.00;100138.59;10334259;28;20116;-68
2023/01/08 07:10:23;;;;;;;1999.90;999.90;;;;;;;7.02;100.00;100147.88;10354057;28;20378;-68
2023/01/08 07:15:25;;;;;;;1999.90;999.90;;;;;;;7.24;100.00;100136.31;10354725;28;20057;-69
2023/01/08 07:20:27;;;;;;;1999.90;999.90;;;;;;;7.16;100.00;100136.75;10347654;28;20046;-69
2023/01/08 07:25:30;;;;;;;1999.90;999.90;;;;;;;7.37;100.00;100134.72;10375553;28;20046;-68
2023/01/08 07:30:33;;;;;;;1999.90;999.90;;;;;;;7.06;100.00;100133.78;10370185;28;20050;-68
2023/01/08 07:35:37;;;;;;;1999.90;999.90;;;;;;;6.96;100.00;100131.72;10340420;28;20526;-68
2023/01/08 07:40:39;;;;;;;1999.90;999.90;;;;;;;6.81;100.00;100134.25;10340108;28;20050;-68
2023/01/08 07:45:42;;;;;;;1999.90;999.90;;;;;;;6.93;100.00;100126.72;10339029;28;20042;-68
2023/01/08 07:50:45;;;;;;;1999.90;999.90;;;;;;;7.13;100.00;100121.28;10381082;28;20516;-68
2023/01/08 07:55:47;;;;;;;1999.90;999.90;;;;;;;7.06;100.00;100123.38;10380963;28;20506;-68
2023/01/08 08:00:49;;;;;;;1999.90;999.90;;;;;;;7.05;100.00;100126.06;10348382;28;20105;-68
2023/01/08 08:05:52;;;;;;;1999.90;999.90;;;;;;;7.02;100.00;100132.25;10339933;28;20046;-69
2023/01/08 08:10:54;;;;;;;1999.90;999.90;;;;;;;6.76;100.00;100143.19;10339876;28;20069;-68
2023/01/08 08:16:03;;;;;;;1999.90;999.90;;;;;;;6.96;100.00;100126.53;10353373;28;20448;-68
2023/01/08 08:21:06;;;;;;;1999.90;999.90;;;;;;;7.02;100.00;100116.63;10348217;28;20092;-68
2023/01/08 08:26:08;;;;;;;1999.90;999.90;;;;;;;6.94;100.00;100123.19;10347991;28;20058;-68
2023/01/08 08:31:11;;;;;;;1999.90;999.90;;;;;;;6.90;100.00;100116.47;10339145;28;20054;-68
2023/01/08 08:36:13;;;;;;;1999.90;999.90;;;;;;;6.99;100.00;100105.56;10339240;28;20129;-68
2023/01/08 08:41:16;;;;;;;1999.90;999.90;;;;;;;7.03;100.00;100109.69;10337008;28;20134;-68
2023/01/08 08:46:19;;;;;;;1999.90;999.90;;;;;;;7.23;100.00;100096.44;10337517;28;20046;-68
2023/01/08 08:51:21;;;;;;;1999.90;999.90;;;;;;;7.33;100.00;100099.38;10352994;28;20058;-68
2023/01/08 08:56:23;;;;;;;1999.90;999.90;;;;;;;7.74;100.00;100097.97;10338213;28;20051;-68
2023/01/08 09:01:26;;;;;;;1999.90;999.90;;;;;;;7.76;100.00;100083.91;10362653;28;20053;-69
2023/01/08 09:06:28;;;;;;;1999.90;999.90;;;;;;;7.54;100.00;100081.69;10346783;28;20061;-68
2023/01/08 09:11:31;;;;;;;1999.90;999.90;;;;;;;7.64;100.00;100092.44;10349859;28;20054;-68
2023/01/08 09:16:35;;;;;;;1999.90;999.90;;;;;;;7.52;100.00;100088.75;10372438;28;20059;-68
2023/01/08 09:21:37;;;;;;;1999.90;999.90;;;;;;;7.51;100.00;100091.44;10369758;28;20204;-68
2023/01/08 09:26:40;;;;;;;1999.90;999.90;;;;;;;7.71;100.00;100087.72;10358220;28;20563;-68
2023/01/08 09:31:42;;;;;;;1999.90;999.90;;;;;;;7.90;100.00;100096.19;10338048;28;20665;-68
2023/01/08 09:36:45;;;;;;;1999.90;999.90;;;;;;;7.83;100.00;100074.00;10335846;28;20050;-68
2023/01/08 09:41:47;;;;;;;1999.90;999.90;;;;;;;7.47;100.00;100080.38;10336541;28;20050;-68
2023/01/08 09:46:52;;;;;;;1999.90;999.90;;;;;;;7.65;100.00;100082.84;10351386;28;20489;-68
2023/01/08 09:51:55;;;;;;;1999.90;999.90;;;;;;;7.77;100.00;100075.19;10334129;28;20141;-67
2023/01/08 09:56:58;;;;;;;1999.90;999.90;;;;;;;7.78;100.00;100063.00;10335943;28;20046;-68
2023/01/08 10:02:01;;;;;;;1999.90;999.90;;;;;;;7.78;100.00;100060.38;10350756;28;20490;-68
2023/01/08 10:07:23;;;;;;;1999.90;999.90;;;;;;;7.91;100.00;100055.31;10335550;28;20509;-68
2023/01/08 10:12:27;;;;;;;1999.90;999.90;;;;;;;7.76;100.00;100055.25;10350528;28;20050;-68
2023/01/08 10:17:57;;;;;;;1999.90;999.90;;;;;;;7.62;100.00;100052.63;10335751;28;20061;-68
2023/01/08 10:23:14;;;;;;;1999.90;999.90;;;;;;;7.72;100.00;100048.56;10335608;28;20046;-67
2023/01/08 10:28:24;;;;;;;1999.90;999.90;;;;;;;7.57;100.00;100041.63;10349793;28;20560;-67
2023/01/08 10:33:41;;;;;;;1999.90;999.90;;;;;;;7.59;100.00;100037.97;10350253;28;20043;-68
2023/01/08 10:38:56;;;;;;;1999.90;999.90;;;;;;;7.76;100.00;100020.56;10350116;28;20054;-67
2023/01/08 10:44:14;;;;;;;1999.90;999.90;;;;;;;8.27;100.00;100013.19;10349298;28;20395;-69
2023/01/08 10:49:22;;;;;;;1999.90;999.90;;;;;;;8.23;100.00;100003.03;10334484;28;20054;-67
2023/01/08 10:54:38;;;;;;;1999.90;999.90;;;;;;;8.19;100.00;100000.59;10348939;28;20074;-68
2023/01/08 10:59:42;;;;;;;1999.90;999.90;;;;;;;8.41;100.00;99988.88;10349451;28;20046;-68
2023/01/08 11:04:49;;;;;;;1999.90;999.90;;;;;;;8.41;100.00;99975.84;10334298;28;20046;-67
2023/01/08 11:09:52;;;;;;;1999.90;999.90;;;;;;;8.50;100.00;99977.88;10349311;28;20105;-67
2023/01/08 11:14:55;;;;;;;1999.90;999.90;;;;;;;8.77;100.00;99966.66;10334070;28;20042;-67
2023/01/08 11:20:07;;;;;;;1999.90;999.90;;;;;;;9.01;100.00;99960.81;10334030;28;20113;-68
2023/01/08 11:25:13;;;;;;;1999.90;999.90;;;;;;;8.98;100.00;99963.63;10333374;28;20378;-68
2023/01/08 11:30:19;;;;;;;1999.90;999.90;;;;;;;9.00;100.00;99957.38;10348321;28;20485;-68
2023/01/08 11:35:45;;;;;;;1999.90;999.90;;;;;;;9.27;100.00;99948.69;10330056;28;20050;-68
2023/01/08 11:40:57;;;;;;;1999.90;999.90;;;;;;;9.66;100.00;99933.91;10347476;28;20125;-68
2023/01/08 11:46:18;;;;;;;1999.90;999.90;;;;;;;9.46;100.00;99928.28;10332924;28;20173;-68
2023/01/08 11:51:47;;;;;;;1999.90;999.90;;;;;;;9.80;97.50;99915.53;10331647;28;20113;-68
2023/01/08 11:57:02;;;;;;;1999.90;999.90;;;;;;;11.60;89.91;99898.31;10294663;28;20468;-68
2023/01/08 12:02:19;;;;;;;1999.90;999.90;;;;;;;11.81;80.99;99896.69;10332500;28;20441;-69
2023/01/08 12:07:34;;;;;;;1999.90;999.90;;;;;;;10.93;86.56;99878.84;10333158;28;20046;-68
2023/01/08 12:13:02;;;;;;;1999.90;999.90;;;;;;;10.02;90.54;99872.22;10335146;28;20426;-67
2023/01/08 12:18:08;;;;;;;1999.90;999.90;;;;;;;9.54;95.34;99872.88;10340205;28;20092;-67
2023/01/08 12:23:37;;;;;;;1999.90;999.90;;;;;;;10.20;95.20;99868.31;10339045;28;20058;-67
2023/01/08 12:28:39;;;;;;;1999.90;999.90;;;;;;;9.82;98.12;99856.13;10337430;28;20116;-68
2023/01/08 12:33:48;;;;;;;1999.90;999.90;;;;;;;10.09;94.96;99859.56;10339696;28;20047;-67
2023/01/08 12:39:18;;;;;;;1999.90;999.90;;;;;;;9.78;94.79;99854.66;10338418;28;20081;-67
2023/01/08 12:44:27;;;;;;;1999.90;999.90;;;;;;;9.36;96.55;99853.22;10333436;28;20051;-67
2023/01/08 12:49:37;;;;;;;1999.90;999.90;;;;;;;9.53;99.05;99854.69;10337712;28;20062;-67
2023/01/08 12:54:48;;;;;;;1999.90;999.90;;;;;;;9.24;99.06;99855.69;10338922;28;20054;-67
2023/01/08 13:00:11;;;;;;;1999.90;999.90;;;;;;;9.36;97.23;99850.59;10338831;28;20054;-67
2023/01/08 13:05:32;;;;;;;1999.90;999.90;;;;;;;9.16;98.23;99855.38;10337545;28;20050;-67
2023/01/08 13:10:37;;;;;;;1999.90;999.90;;;;;;;9.36;97.25;99846.19;10338234;28;20058;-67
2023/01/08 13:15:40;;;;;;;1999.90;999.90;;;;;;;9.30;97.27;99842.22;10336491;28;20050;-67
2023/01/08 13:20:42;;;;;;;1999.90;999.90;;;;;;;9.80;94.84;99826.66;10337938;28;20058;-67
2023/01/08 13:25:53;;;;;;;1999.90;999.90;;;;;;;9.87;94.31;99821.84;10334753;28;20042;-67
2023/01/08 13:31:05;;;;;;;1999.90;999.90;;;;;;;9.60;94.93;99812.34;10336489;28;20054;-67
2023/01/08 13:36:23;;;;;;;1999.90;999.90;;;;;;;9.36;93.64;99803.56;10337322;28;20046;-68
2023/01/08 13:41:28;;;;;;;1999.90;999.90;;;;;;;9.53;94.53;99805.03;10336568;28;20054;-67
2023/01/08 13:46:33;;;;;;;1999.90;999.90;;;;;;;9.73;92.40;99787.97;10336345;28;20515;-67
2023/01/08 13:51:44;;;;;;;1999.90;999.90;;;;;;;9.34;92.95;99767.09;10334804;28;20602;-67
2023/01/08 13:56:51;;;;;;;1999.90;999.90;;;;;;;9.16;93.30;99769.19;10335342;28;20049;-67
2023/01/08 14:01:55;;;;;;;1999.90;999.90;;;;;;;9.33;93.48;99767.22;10335312;28;20097;-67
2023/01/08 14:07:13;;;;;;;1999.90;999.90;;;;;;;9.35;89.62;99771.41;10375098;23;20072;-68
2023/01/08 14:12:21;;;;;;;1999.90;999.90;;;;;;;9.53;88.78;99765.84;10375400;28;20050;-68
2023/01/08 14:17:29;;;;;;;1999.90;999.90;;;;;;;9.50;89.85;99756.44;10374675;28;20489;-68
2023/01/08 14:22:33;;;;;;;1999.90;999.90;;;;;;;9.34;91.35;99758.44;10374508;28;20057;-68
2023/01/08 14:27:36;;;;;;;1999.90;999.90;;;;;;;9.21;90.78;99761.03;10376097;28;20057;-68
2023/01/08 14:32:44;;;;;;;1999.90;999.90;;;;;;;9.39;91.21;99753.72;10375178;28;20052;-68
2023/01/08 14:37:46;;;;;;;1999.90;999.90;;;;;;;9.34;88.88;99746.19;10358709;28;20073;-68
2023/01/08 14:42:52;;;;;;;1999.90;999.90;;;;;;;9.15;88.61;99741.41;10374356;28;20046;-68
2023/01/08 14:48:16;;;;;;;1999.90;999.90;;;;;;;8.93;88.77;99739.44;10373709;28;20452;-68
2023/01/08 14:53:28;;;;;;;1999.90;999.90;;;;;;;8.94;88.18;99733.25;10371638;28;20049;-68
2023/01/08 14:58:38;;;;;;;1999.90;999.90;;;;;;;9.05;88.35;99719.50;10370864;28;20058;-63
2023/01/08 15:03:42;;;;;;;1999.90;999.90;;;;;;;8.68;89.18;99714.97;10396914;28;20060;-63
2023/01/08 15:08:45;;;;;;;1999.90;999.90;;;;;;;8.79;87.67;99713.41;10413854;28;20492;-63
2023/01/08 15:13:49;;;;;;;1999.90;999.90;;;;;;;8.70;88.27;99704.44;10358426;28;20555;-63
2023/01/08 15:19:06;;;;;;;1999.90;999.90;;;;;;;8.61;89.08;99705.03;10379963;28;20049;-63
2023/01/08 15:24:22;;;;;;;1999.90;999.90;;;;;;;8.47;90.83;99698.13;10414279;28;20049;-63
2023/01/08 15:29:32;;;;;;;1999.90;999.90;;;;;;;8.27;92.64;99688.97;10381397;28;20077;-64
2023/01/08 15:34:34;;;;;;;1999.90;999.90;;;;;;;8.14;94.41;99687.16;10357508;28;20056;-63
2023/01/08 15:39:36;;;;;;;1999.90;999.90;;;;;;;7.97;93.92;99685.66;10369447;28;20061;-63
2023/01/08 15:44:39;;;;;;;1999.90;999.90;;;;;;;8.16;95.59;99674.03;10373433;28;20041;-63
2023/01/08 15:49:41;;;;;;;1999.90;999.90;;;;;;;8.02;95.71;99682.75;10377503;28;20108;-63
2023/01/08 15:54:43;;;;;;;1999.90;999.90;;;;;;;7.80;96.30;99684.13;10357481;28;20054;-64
2023/01/08 15:59:46;;;;;;;1999.90;999.90;;;;;;;7.92;95.17;99690.31;10376419;28;20054;-63
2023/01/08 16:04:55;;;;;;;1999.90;999.90;;;;;;;7.55;99.71;99686.63;10374901;28;20100;-64
2023/01/08 16:09:57;;;;;;;1999.90;999.90;;;;;;;7.23;100.00;99684.22;10351294;28;20789;-63
2023/01/08 16:14:59;;;;;;;1999.90;999.90;;;;;;;7.56;99.83;99683.88;10405261;28;20065;-64
2023/01/08 16:20:03;;;;;;;1999.90;999.90;;;;;;;7.50;100.00;99680.81;10390235;28;20058;-64
2023/01/08 16:25:08;;;;;;;1999.90;999.90;;;;;;;7.58;99.13;99679.44;10386676;28;20053;-63
2023/01/08 16:30:16;;;;;;;1999.90;999.90;;;;;;;7.35;100.00;99670.44;10359572;28;20398;-63
2023/01/08 16:35:19;;;;;;;1999.90;999.90;;;;;;;7.65;99.55;99676.44;10371821;28;20045;-64
2023/01/08 16:40:21;;;;;;;1999.90;999.90;;;;;;;7.44;99.50;99675.06;10365502;28;20049;-63
2023/01/08 16:45:24;;;;;;;1999.90;999.90;;;;;;;7.53;98.61;99665.88;10358581;28;20050;-63
2023/01/08 16:50:26;;;;;;;1999.90;999.90;;;;;;;7.35;100.00;99667.03;10374720;28;20057;-64
2023/01/08 16:55:28;;;;;;;1999.90;999.90;;;;;;;7.49;99.84;99664.38;10357563;28;20054;-63
2023/01/08 17:00:31;;;;;;;1999.90;999.90;;;;;;;7.36;100.00;99666.06;10369907;28;20053;-63
2023/01/08 17:05:35;;;;;;;1999.90;999.90;;;;;;;7.58;100.00;99661.22;10362200;28;20054;-63
2023/01/08 17:10:38;;;;;;;1999.90;999.90;;;;;;;7.27;100.00;99651.84;10376296;28;20054;-64
2023/01/08 17:15:42;;;;;;;1999.90;999.90;;;;;;;7.24;100.00;99650.25;10375127;28;20515;-63
2023/01/08 17:20:52;;;;;;;1999.90;999.90;;;;;;;7.40;100.00;99644.97;10375163;28;20045;-63
2023/01/08 17:25:57;;;;;;;1999.90;999.90;;;;;;;7.35;100.00;99628.78;10351628;28;20054;-63
2023/01/08 17:31:08;;;;;;;1999.90;999.90;;;;;;;7.54;100.00;99633.66;10358140;28;20456;-63
2023/01/08 17:36:11;;;;;;;1999.90;999.90;;;;;;;7.73;100.00;99619.47;10374194;28;20080;-63
2023/01/08 17:46:35;;;;;;;1999.90;999.90;;;;;;;7.56;100.00;99616.16;10342364;28;20104;-63
2023/01/08 17:51:39;;;;;;;1999.90;999.90;;;;;;;7.46;100.00;99603.84;10374661;28;20092;-63
2023/01/08 17:56:43;;;;;;;1999.90;999.90;;;;;;;7.43;100.00;99591.84;10363713;28;20046;-64
2023/01/08 18:01:45;;;;;;;1999.90;999.90;;;;;;;7.38;100.00;99586.06;10374425;28;20065;-63
2023/01/08 18:06:47;;;;;;;1999.90;999.90;;;;;;;7.22;100.00;99586.22;10361324;28;20105;-63
2023/01/08 18:11:50;;;;;;;1999.90;999.90;;;;;;;7.04;100.00;99581.25;10359422;28;20049;-63
2023/01/08 18:16:52;;;;;;;1999.90;999.90;;;;;;;7.02;100.00;99582.25;10344396;28;20050;-63
2023/01/08 18:21:57;;;;;;;1999.90;999.90;;;;;;;7.05;100.00;99576.88;10357326;28;20116;-63
2023/01/08 18:27:00;;;;;;;1999.90;999.90;;;;;;;6.88;100.00;99567.50;10366426;28;20049;-63
2023/01/08 18:32:02;;;;;;;1999.90;999.90;;;;;;;6.77;100.00;99562.13;10351990;28;20412;-63
2023/01/08 18:37:05;;;;;;;1999.90;999.90;;;;;;;6.92;100.00;99565.56;10361452;28;20100;-63
2023/01/08 18:42:26;;;;;;;1999.90;999.90;;;;;;;6.80;100.00;99557.56;10354439;28;20049;-63
2023/01/08 18:47:30;;;;;;;1999.90;999.90;;;;;;;6.88;100.00;99551.91;10342046;28;20046;-63
2023/01/08 18:52:32;;;;;;;1999.90;999.90;;;;;;;6.96;100.00;99538.41;10365461;28;20054;-63
2023/01/08 18:57:35;;;;;;;1999.90;999.90;;;;;;;6.83;100.00;99527.94;10349412;28;20054;-63
2023/01/08 19:02:38;;;;;;;1999.90;999.90;;;;;;;6.77;100.00;99523.09;10365292;28;20057;-63
2023/01/08 19:07:41;;;;;;;1999.90;999.90;;;;;;;6.93;100.00;99523.81;10374180;28;20137;-63
2023/01/08 19:12:43;;;;;;;1999.90;999.90;;;;;;;6.79;100.00;99513.44;10364293;28;20054;-63
2023/01/08 19:17:46;;;;;;;1999.90;999.90;;;;;;;6.80;100.00;99502.94;10335684;28;20105;-63
2023/01/08 19:22:50;;;;;;;1999.90;999.90;;;;;;;6.62;100.00;99499.72;10359952;28;20053;-63
2023/01/08 19:27:52;;;;;;;1999.90;999.90;;;;;;;6.51;100.00;99502.13;10361788;28;20046;-63
2023/01/08 19:32:55;;;;;;;1999.90;999.90;;;;;;;6.53;100.00;99482.06;10357125;28;20108;-63
2023/01/08 19:37:58;;;;;;;1999.90;999.90;;;;;;;6.51;100.00;99482.16;10340518;28;20513;-64
2023/01/08 19:48:21;;;;;;;1999.90;999.90;;;;;;;6.55;100.00;99481.97;10344356;28;20062;-63
2023/01/08 19:53:24;;;;;;;1999.90;999.90;;;;;;;6.63;100.00;99466.75;10357847;28;20049;-63
2023/01/08 19:58:28;;;;;;;1999.90;999.90;;;;;;;6.70;100.00;99465.41;10381164;28;20054;-63
2023/01/08 20:03:30;;;;;;;1999.90;999.90;;;;;;;6.90;100.00;99456.34;10380070;28;20379;-63
2023/01/08 20:08:33;;;;;;;1999.90;999.90;;;;;;;6.82;100.00;99451.63;10345037;28;20054;-63
2023/01/08 20:13:36;;;;;;;1999.90;999.90;;;;;;;6.96;100.00;99437.75;10341107;28;20050;-64
2023/01/08 20:18:38;;;;;;;1999.90;999.90;;;;;;;6.80;100.00;99443.09;10355474;28;20053;-63
2023/01/08 20:23:41;;;;;;;1999.90;999.90;;;;;;;6.91;100.00;99436.38;10348282;28;20054;-63
2023/01/08 20:28:44;;;;;;;1999.90;999.90;;;;;;;7.07;100.00;99408.44;10371001;28;20047;-63
2023/01/08 20:33:47;;;;;;;1999.90;999.90;;;;;;;7.17;100.00;99398.25;10369744;28;20097;-63
2023/01/08 20:38:52;;;;;;;1999.90;999.90;;;;;;;6.96;100.00;99403.09;10382982;28;20452;-63
2023/01/08 20:43:55;;;;;;;1999.90;999.90;;;;;;;7.07;100.00;99404.06;10368318;28;20062;-63
2023/01/08 20:49:02;;;;;;;1999.90;999.90;;;;;;;7.15;100.00;99400.13;10337937;28;20616;-63
2023/01/08 20:54:06;;;;;;;1999.90;999.90;;;;;;;7.19;100.00;99392.00;10341203;28;20409;-64
2023/01/08 20:59:09;;;;;;;1999.90;999.90;;;;;;;7.28;100.00;99380.19;10336935;28;20104;-63
2023/01/08 21:04:12;;;;;;;1999.90;999.90;;;;;;;7.23;100.00;99370.06;10339232;28;20414;-63
2023/01/08 21:09:16;;;;;;;1999.90;999.90;;;;;;;7.28;100.00;99367.16;10337743;28;20101;-63
2023/01/08 21:14:18;;;;;;;1999.90;999.90;;;;;;;7.25;100.00;99367.34;10346505;28;20042;-63
2023/01/08 21:19:21;;;;;;;1999.90;999.90;;;;;;;7.23;100.00;99354.44;10404492;28;20208;-63
2023/01/08 21:24:23;;;;;;;1999.90;999.90;;;;;;;7.29;100.00;99345.38;10384308;28;20042;-63
2023/01/08 21:29:26;;;;;;;1999.90;999.90;;;;;;;7.25;100.00;99330.91;10371711;28;20057;-63
2023/01/08 21:34:28;;;;;;;1999.90;999.90;;;;;;;7.42;100.00;99321.97;10373257;28;20045;-63
2023/01/08 21:39:30;;;;;;;1999.90;999.90;;;;;;;7.28;100.00;99333.31;10373051;28;20460;-64
2023/01/08 21:49:55;;;;;;;1999.90;999.90;;;;;;;7.63;100.00;99315.28;10377465;28;20065;-63
2023/01/08 21:54:57;;;;;;;1999.90;999.90;;;;;;;7.57;100.00;99297.47;10355206;28;20153;-63
2023/01/08 22:00:00;;;;;;;1999.90;999.90;;;;;;;7.49;100.00;99291.13;10377147;28;20058;-63
2023/01/08 22:05:03;;;;;;;1999.90;999.90;;;;;;;7.56;100.00;99289.75;10376092;28;20054;-64
2023/01/08 22:10:05;;;;;;;1999.90;999.90;;;;;;;7.67;100.00;99282.03;10370955;28;20436;-63
2023/01/08 22:15:08;;;;;;;1999.90;999.90;;;;;;;7.61;100.00;99279.84;10360986;28;20108;-63
2023/01/08 22:20:13;;;;;;;1999.90;999.90;;;;;;;7.66;100.00;99277.75;10374436;28;20045;-64
2023/01/08 22:25:15;;;;;;;1999.90;999.90;;;;;;;7.72;100.00;99272.13;10360314;28;20053;-63
2023/01/08 22:30:17;;;;;;;1999.90;999.90;;;;;;;7.59;100.00;99260.91;10366684;28;20049;-64
2023/01/08 22:35:20;;;;;;;1999.90;999.90;;;;;;;7.79;100.00;99252.53;10369485;28;20042;-64